Time;durP1;ratioP1;P1;durP2;ratioP2;P2;SDS_P1;SDS_P2;PMS_P1;PMS_P2;Temp;Humidity;BMP_temperature;BMP_pressure;BME280_temperature;BME280_humidity;BME280_pressure;Samples;Min_cycle;Max_cycle;Signal;HPM_P1;HPM_P2
2021/01/29 00:00:45;;;;;;;;;0.00;0.00;20.40;70.30;;;19.35;55.68;100610.47;5027103;28;8839;-62
2021/01/29 00:03:17;;;;;;;;;1.00;0.50;20.50;71.00;;;19.36;55.64;100596.06;5029310;28;8794;-62
2021/01/29 00:05:52;;;;;;;;;0.00;0.00;20.60;70.30;;;19.39;55.70;100598.44;5023204;28;8835;-62
2021/01/29 00:08:21;;;;;;;;;0.00;0.00;20.60;70.00;;;19.39;55.72;100598.44;5014224;28;8794;-62
2021/01/29 00:10:49;;;;;;;;;0.00;0.00;20.70;69.90;;;19.36;55.45;100588.03;5031852;28;9573;-62
2021/01/29 00:13:17;;;;;;;;;0.00;0.00;20.80;69.90;;;19.37;55.50;100592.41;5027236;28;8832;-62
2021/01/29 00:15:44;;;;;;;;;0.00;0.00;20.50;69.80;;;19.33;55.53;100589.19;5029074;28;8905;-62
2021/01/29 00:18:12;;;;;;;;;0.00;0.00;20.60;69.80;;;19.33;55.47;100599.91;5026023;28;8838;-62
2021/01/29 00:20:39;;;;;;;;;0.00;0.00;20.50;69.80;;;19.32;55.45;100578.66;5019820;28;8827;-62
2021/01/29 00:23:06;;;;;;;;;0.00;0.00;20.60;69.80;;;19.32;55.12;100576.81;5025826;28;8800;-62
2021/01/29 00:25:41;;;;;;;;;0.75;0.00;20.50;69.70;;;19.29;55.29;100569.09;5018436;28;8830;-62
2021/01/29 00:28:08;;;;;;;;;0.00;0.00;20.50;70.40;;;19.28;55.32;100584.34;5021117;28;8842;-62
2021/01/29 00:30:36;;;;;;;;;0.00;0.00;20.50;69.70;;;19.27;55.49;100576.47;5021244;28;8851;-62
2021/01/29 00:33:07;;;;;;;;;0.00;0.00;20.60;69.70;;;19.26;55.50;100580.16;5022059;28;8836;-62
2021/01/29 00:35:35;;;;;;;;;0.00;0.00;20.70;69.80;;;19.22;55.23;100576.09;5021084;28;9513;-62
2021/01/29 00:38:04;;;;;;;;;0.00;0.00;20.30;69.60;;;19.26;55.69;100580.16;5026618;28;8777;-62
2021/01/29 00:40:30;;;;;;;;;0.50;0.00;20.20;69.80;;;19.28;55.69;100594.19;5034353;28;8788;-62
2021/01/29 00:42:59;;;;;;;;;1.00;0.00;20.40;69.90;;;19.30;55.60;100584.16;5019861;28;8788;-62
2021/01/29 00:45:31;;;;;;;;;0.00;0.00;20.70;70.00;;;19.28;55.53;100581.66;5022341;28;8799;-62
2021/01/29 00:47:58;;;;;;;;;1.00;0.00;20.80;70.00;;;19.28;55.23;100578.13;5027353;28;8781;-62
2021/01/29 00:50:26;;;;;;;;;1.00;1.00;20.50;70.00;;;19.28;55.43;100579.00;5025771;28;8903;-62
2021/01/29 00:52:53;;;;;;;;;0.00;0.00;20.50;70.00;;;19.27;55.52;100576.47;5009978;28;8812;-62
2021/01/29 00:55:22;;;;;;;;;0.00;0.00;20.60;70.10;;;19.24;55.64;100580.31;5026678;28;8817;-62
2021/01/29 00:57:49;;;;;;;;;0.00;0.00;20.60;70.20;;;19.22;55.64;100584.97;5037721;28;8857;-62
2021/01/29 01:00:19;;;;;;;;;0.00;0.00;20.60;70.20;;;19.22;55.79;100568.06;5024340;28;8813;-62
2021/01/29 01:02:46;;;;;;;;;0.00;0.00;20.60;70.20;;;19.21;55.65;100566.38;5023194;28;8950;-62
2021/01/29 01:05:17;;;;;;;;;0.00;0.00;20.50;70.30;;;19.19;56.16;100561.22;5024855;28;8806;-62
2021/01/29 01:07:43;;;;;;;;;0.00;0.00;20.30;70.40;;;19.18;56.19;100564.03;5023439;28;8846;-62
2021/01/29 01:10:12;;;;;;;;;0.00;0.00;20.50;70.60;;;19.23;55.89;100573.28;5003427;28;8826;-61
2021/01/29 01:12:38;;;;;;;;;0.00;0.00;20.60;70.50;;;19.24;55.69;100574.94;5021119;28;8841;-60
2021/01/29 01:15:18;;;;;;;;;0.00;0.00;20.50;70.10;;;19.28;55.78;100576.31;5025195;28;8880;-62
2021/01/29 01:17:46;;;;;;;;;0.00;0.00;20.50;69.80;;;19.29;55.40;100567.25;5020038;28;8813;-60
2021/01/29 01:20:16;;;;;;;;;0.00;0.00;20.60;69.80;;;19.30;55.48;100563.56;5021243;28;8949;-61
2021/01/29 01:22:43;;;;;;;;;0.00;0.00;20.40;69.60;;;19.33;55.49;100559.72;5019833;28;8822;-61
2021/01/29 01:25:11;;;;;;;;;0.00;0.00;20.60;70.00;;;19.36;55.43;100555.88;5021816;28;8816;-60
2021/01/29 01:27:38;;;;;;;;;0.00;0.00;20.60;69.70;;;19.38;55.41;100557.41;5020320;28;8803;-61
2021/01/29 01:30:10;;;;;;;;;0.00;0.00;20.60;69.70;;;19.41;55.56;100558.91;5008653;28;8808;-60
2021/01/29 01:32:37;;;;;;;;;0.00;0.00;20.70;69.70;;;19.41;55.50;100562.44;5012681;28;9720;-60
2021/01/29 01:35:06;;;;;;;;;0.00;0.00;20.60;69.90;;;19.43;55.34;100572.97;5020273;28;9550;-61
2021/01/29 01:37:33;;;;;;;;;0.00;0.00;20.60;69.80;;;19.43;55.28;100578.34;5019094;28;9542;-60
2021/01/29 01:40:00;;;;;;;;;0.00;0.00;20.60;70.00;;;19.45;55.63;100576.34;5025638;28;9670;-61
2021/01/29 01:42:27;;;;;;;;;0.50;0.50;20.60;70.00;;;19.46;55.34;100576.19;5026985;28;8782;-60
2021/01/29 01:44:54;;;;;;;;;0.00;0.00;20.50;70.00;;;19.47;55.51;100569.81;5027796;28;8822;-61
2021/01/29 01:47:41;;;;;;;;;0.00;0.00;20.70;70.10;;;19.47;55.37;100568.97;5027151;28;9589;-61
2021/01/29 01:50:35;;;;;;;;;1.00;1.00;20.60;70.10;;;19.50;55.48;100565.97;5014793;28;8782;-61
2021/01/29 01:53:06;;;;;;;;;0.00;0.00;20.70;70.00;;;19.53;55.46;100573.66;5018819;28;8809;-61
2021/01/29 01:55:38;;;;;;;;;1.00;0.00;20.70;69.90;;;19.51;55.26;100573.00;4994916;28;8848;-60
2021/01/29 01:58:07;;;;;;;;;0.00;0.00;20.70;69.70;;;19.53;55.30;100581.72;5013248;28;8831;-60
2021/01/29 02:00:35;;;;;;;;;0.00;0.00;20.60;69.90;;;19.54;55.09;100580.72;5009318;28;8829;-60
2021/01/29 02:03:12;;;;;;;;;0.00;0.00;20.60;69.80;;;19.55;55.74;100570.84;5011530;28;8794;-61
2021/01/29 02:05:41;;;;;;;;;0.00;0.00;20.50;70.60;;;19.60;55.77;100573.88;5024555;28;8817;-61
2021/01/29 02:08:14;;;;;;;;;1.75;1.00;20.70;70.80;;;19.69;55.65;100570.19;5031589;28;8888;-61
2021/01/29 02:10:41;;;;;;;;;0.00;0.00;20.80;70.60;;;19.76;55.63;100568.53;5023804;28;8819;-61
2021/01/29 02:13:10;;;;;;;;;0.00;0.00;21.00;70.30;;;19.78;55.45;100558.50;5024106;28;8817;-61
2021/01/29 02:15:43;;;;;;;;;0.00;0.00;21.10;69.70;;;19.81;55.27;100573.41;5028113;28;8977;-61
2021/01/29 02:18:44;;;;;;;;;0.00;0.00;21.10;69.40;;;19.82;54.94;100572.38;5015168;28;8820;-60
2021/01/29 02:21:38;;;;;;;;;2.00;1.00;21.20;69.60;;;19.81;54.92;100578.78;5019633;28;8780;-61
2021/01/29 02:25:08;;;;;;;;;0.00;0.00;20.90;69.40;;;19.83;54.72;100579.44;5043077;28;8877;-61
2021/01/29 02:27:51;;;;;;;;;0.00;0.00;21.10;69.50;;;19.81;54.68;100582.28;5022704;28;9602;-61
2021/01/29 02:30:48;;;;;;;;;0.00;0.00;20.90;69.60;;;19.84;54.74;100587.31;5033276;28;8826;-60
2021/01/29 02:34:11;;;;;;;;;0.00;0.00;21.00;69.50;;;19.84;54.97;100587.31;5020335;28;8794;-60
2021/01/29 02:37:03;;;;;;;;;0.00;0.00;20.90;69.50;;;19.84;54.71;100594.50;5021432;28;8774;-61
2021/01/29 02:39:41;;;;;;;;;0.00;0.00;21.10;69.60;;;19.83;54.72;100591.00;5018745;28;8808;-61
2021/01/29 02:42:35;;;;;;;;;0.00;0.00;20.90;69.50;;;19.87;54.57;100596.84;5015189;28;8859;-60
2021/01/29 02:45:27;;;;;;;;;0.60;0.60;20.90;69.80;;;19.87;54.79;100592.34;5028524;28;8889;-60
2021/01/29 02:48:56;;;;;;;;;1.25;0.50;20.80;70.10;;;19.95;54.74;100597.72;5026864;28;11068;-60
2021/01/29 02:51:53;;;;;;;;;0.00;0.00;20.90;69.80;;;19.95;54.41;100604.94;4968426;28;8834;-60
2021/01/29 02:55:04;;;;;;;;;1.50;1.00;21.10;69.40;;;19.97;53.90;100608.25;4969309;28;8818;-59
2021/01/29 02:58:44;;;;;;;;;1.00;1.00;21.00;69.10;;;19.94;53.89;100600.56;5032232;28;8974;-59
2021/01/29 03:01:28;;;;;;;;;0.50;0.50;20.90;69.10;;;19.94;53.90;100587.16;4942307;28;9514;-60
2021/01/29 03:04:21;;;;;;;;;0.75;0.75;21.00;69.20;;;19.92;53.62;100590.00;4930033;28;8821;-60
2021/01/29 03:07:03;;;;;;;;;1.00;1.00;20.90;69.30;;;19.92;53.55;100583.78;5010143;28;8797;-60
2021/01/29 03:09:55;;;;;;;;;0.00;0.00;21.00;69.10;;;19.92;53.59;100591.81;5033925;28;8788;-61
2021/01/29 03:12:57;;;;;;;;;0.00;0.00;20.90;69.10;;;19.90;53.27;100600.06;5022494;28;8837;-60
2021/01/29 03:15:43;;;;;;;;;0.75;0.75;20.80;69.00;;;19.92;53.21;100592.69;5029900;28;8876;-60
2021/01/29 03:18:26;;;;;;;;;0.00;0.00;20.90;68.90;;;19.93;53.08;100593.53;5017834;28;8791;-60
2021/01/29 03:21:16;;;;;;;;;0.50;0.50;21.00;68.90;;;19.93;53.07;100596.19;5022992;28;8912;-60
2021/01/29 03:24:09;;;;;;;;;1.00;1.00;21.00;68.70;;;19.95;53.15;100591.53;5016387;28;8897;-60
2021/01/29 03:26:55;;;;;;;;;1.00;1.00;20.90;68.60;;;19.95;53.26;100591.53;5009663;28;8820;-60
2021/01/29 03:29:27;;;;;;;;;1.25;1.00;20.80;68.50;;;19.92;53.55;100599.88;5014184;28;8802;-60
2021/01/29 03:32:00;;;;;;;;;1.00;1.00;21.00;69.00;;;19.90;53.74;100601.91;5016407;28;8834;-60
2021/01/29 03:34:57;;;;;;;;;0.50;0.50;21.00;69.30;;;19.91;54.01;100609.75;5018349;28;8789;-60
2021/01/29 03:37:40;;;;;;;;;1.00;1.00;21.00;69.10;;;19.91;53.99;100615.13;5028300;28;8808;-60
2021/01/29 03:40:08;;;;;;;;;0.00;0.00;21.00;69.50;;;19.91;54.33;100609.75;5032731;28;8778;-60
2021/01/29 03:43:04;;;;;;;;;1.00;1.00;21.00;69.20;;;19.90;54.67;100607.25;5017116;28;8814;-60
2021/01/29 03:45:51;;;;;;;;;0.25;0.25;20.90;69.40;;;19.91;55.03;100612.44;5016267;28;8866;-60
2021/01/29 03:48:58;;;;;;;;;1.00;0.00;20.70;69.00;;;19.89;55.23;100616.28;5021229;28;8777;-60
2021/01/29 03:51:56;;;;;;;;;1.25;0.50;20.80;69.30;;;19.89;55.57;100605.56;5032060;28;8814;-60
2021/01/29 03:54:36;;;;;;;;;1.00;1.00;20.90;70.00;;;19.90;55.23;100624.19;5028434;28;8880;-59
2021/01/29 03:57:22;;;;;;;;;1.50;1.00;20.80;69.70;;;19.87;55.57;100616.47;5026276;28;8883;-60
2021/01/29 04:00:39;;;;;;;;;1.00;1.00;20.80;69.90;;;19.87;55.73;100611.13;5027476;28;8770;-60
2021/01/29 04:03:35;;;;;;;;;1.25;0.50;20.80;70.00;;;19.86;55.85;100612.09;5023737;28;8810;-60
2021/01/29 04:06:20;;;;;;;;;3.25;2.25;20.80;70.20;;;19.87;55.66;100619.16;5025627;28;8885;-60
2021/01/29 04:09:12;;;;;;;;;1.00;1.00;20.90;70.20;;;19.86;55.72;100609.41;5022196;28;8788;-60
2021/01/29 04:11:52;;;;;;;;;2.00;2.00;20.90;70.30;;;19.85;55.69;100598.88;5022502;28;8821;-60
2021/01/29 04:14:47;;;;;;;;;1.00;0.25;20.80;70.30;;;19.83;55.74;100612.44;5013591;28;8896;-60
2021/01/29 04:17:22;;;;;;;;;1.75;1.75;20.80;70.40;;;19.83;55.52;100622.34;5025268;28;8818;-60
2021/01/29 04:19:56;;;;;;;;;1.00;1.00;20.90;70.40;;;19.83;55.47;100627.69;5006396;28;8840;-60
2021/01/29 04:22:34;;;;;;;;;2.00;2.00;20.70;70.40;;;19.81;55.59;100610.94;5009363;28;8812;-60
2021/01/29 04:25:27;;;;;;;;;1.00;1.00;20.50;70.20;;;19.80;55.16;100610.09;5019984;28;8837;-60
2021/01/29 04:28:08;;;;;;;;;2.00;1.00;20.80;70.40;;;19.79;55.73;100619.13;5024117;28;8841;-60
2021/01/29 04:30:38;;;;;;;;;1.00;1.00;20.70;70.90;;;19.78;55.19;100619.31;5015091;28;8838;-59
2021/01/29 04:33:18;;;;;;;;;0.50;0.50;20.80;70.30;;;19.77;55.09;100625.66;5027082;28;8940;-60
2021/01/29 04:35:46;;;;;;;;;1.00;1.00;20.70;70.30;;;19.78;54.97;100638.06;5009548;28;8806;-60
2021/01/29 04:38:31;;;;;;;;;0.00;0.00;20.70;70.20;;;19.76;54.96;100624.81;5016413;28;8787;-60
2021/01/29 04:41:12;;;;;;;;;2.00;1.25;20.70;70.30;;;19.75;55.01;100641.09;5012543;28;8847;-60
2021/01/29 04:43:56;;;;;;;;;0.50;0.50;20.50;70.20;;;19.72;54.90;100643.09;5027225;28;8792;-60
2021/01/29 04:47:14;;;;;;;;;1.00;1.00;20.50;70.00;;;19.69;55.54;100638.06;5026585;28;8817;-60
2021/01/29 04:50:02;;;;;;;;;0.50;0.50;20.50;71.80;;;19.72;56.09;100647.63;5022732;28;8839;-60
2021/01/29 04:52:55;;;;;;;;;0.00;0.00;20.50;71.70;;;19.74;55.96;100637.53;5012105;28;8896;-60
2021/01/29 04:55:48;;;;;;;;;1.00;1.00;20.80;71.00;;;19.76;55.21;100640.06;5028135;28;9527;-60
2021/01/29 04:58:22;;;;;;;;;0.50;0.50;20.80;70.00;;;19.77;54.96;100641.75;5031612;28;9522;-60
2021/01/29 05:01:23;;;;;;;;;1.50;1.00;20.60;69.60;;;19.76;55.08;100646.28;5027364;28;8788;-60
2021/01/29 05:04:35;;;;;;;;;1.00;1.00;20.90;70.00;;;19.71;54.90;100646.75;5019052;28;8819;-60
2021/01/29 05:07:32;;;;;;;;;2.00;2.00;20.80;70.00;;;19.71;55.12;100645.91;5019267;28;8805;-60
2021/01/29 05:10:31;;;;;;;;;0.00;0.00;20.70;70.00;;;19.68;54.79;100651.63;5022920;28;8793;-60
2021/01/29 05:13:56;;;;;;;;;1.00;1.00;20.60;70.40;;;19.69;55.17;100648.78;5028844;28;8859;-60
2021/01/29 05:16:36;;;;;;;;;0.75;0.75;20.80;70.70;;;19.73;54.98;100646.59;5024731;28;8769;-59
2021/01/29 05:19:24;;;;;;;;;2.00;1.00;20.70;70.10;;;19.75;54.63;100651.81;5020558;28;8915;-60
2021/01/29 05:22:31;;;;;;;;;1.00;1.00;20.80;69.50;;;19.73;54.45;100650.13;5025675;28;8810;-60
2021/01/29 05:25:36;;;;;;;;;1.00;1.00;20.90;69.30;;;19.73;54.38;100644.75;5023154;28;8822;-60
2021/01/29 05:28:29;;;;;;;;;1.00;1.00;20.80;69.20;;;19.75;54.41;100649.13;5008975;28;9543;-60
2021/01/29 05:31:04;;;;;;;;;2.00;1.00;20.80;69.40;;;19.73;54.22;100652.78;5023772;28;8859;-60
2021/01/29 05:34:18;;;;;;;;;1.25;1.25;20.90;69.50;;;19.72;54.20;100655.66;5026769;28;8834;-60
2021/01/29 05:37:40;;;;;;;;;0.00;0.00;20.80;69.40;;;19.68;54.50;100657.81;4929890;29;8827;-60
2021/01/29 05:40:49;;;;;;;;;1.25;1.00;20.60;69.70;;;19.69;54.84;100659.50;4928457;29;8920;-60
2021/01/29 05:44:20;;;;;;;;;0.00;0.00;20.60;70.30;;;19.73;54.64;100650.13;5025852;28;8774;-60
2021/01/29 05:47:20;;;;;;;;;1.00;1.00;20.70;69.60;;;19.73;54.59;100654.63;5023287;28;8785;-60
2021/01/29 05:50:42;;;;;;;;;0.00;0.00;20.90;69.30;;;19.75;54.40;100651.81;5023624;28;8837;-60
2021/01/29 05:53:54;;;;;;;;;0.25;0.25;20.90;69.40;;;19.73;54.60;100649.28;5016543;28;8786;-60
2021/01/29 05:57:17;;;;;;;;;2.00;1.00;20.90;69.90;;;19.71;54.49;100641.41;5018433;28;8908;-60
2021/01/29 06:00:03;;;;;;;;;2.50;1.00;20.80;69.80;;;19.72;54.23;100648.44;5009464;28;8912;-60
2021/01/29 06:02:58;;;;;;;;;0.50;0.50;20.70;69.50;;;19.73;54.45;100650.13;5031230;28;8787;-60
2021/01/29 06:06:13;;;;;;;;;1.25;1.25;20.80;69.40;;;19.67;54.46;100648.09;5028277;28;8827;-60
2021/01/29 06:09:07;;;;;;;;;2.00;1.50;20.60;69.90;;;19.66;54.63;100654.41;5029653;28;8817;-60
2021/01/29 06:12:10;;;;;;;;;2.00;1.25;20.60;70.00;;;19.63;54.70;100651.22;5025295;28;8849;-60
2021/01/29 06:15:10;;;;;;;;;1.00;1.00;20.80;69.80;;;19.60;54.55;100652.41;5016743;28;8804;-61
2021/01/29 06:17:59;;;;;;;;;1.25;1.00;20.80;69.40;;;19.56;54.64;100653.72;5028814;28;8836;-61
2021/01/29 06:21:26;;;;;;;;;1.00;1.00;20.60;69.20;;;19.56;54.87;100655.56;5025673;28;8830;-61
2021/01/29 06:24:14;;;;;;;;;1.25;1.00;20.70;69.50;;;19.51;55.08;100650.69;4962609;28;8919;-61
2021/01/29 06:27:26;;;;;;;;;2.00;0.75;20.60;69.30;;;19.48;54.78;100654.53;5020318;28;8841;-61
2021/01/29 06:30:20;;;;;;;;;1.00;1.00;20.80;69.60;;;19.45;55.06;100657.53;5029120;28;8818;-61
2021/01/29 06:33:32;;;;;;;;;1.00;1.00;20.60;69.60;;;19.42;55.12;100651.69;5023874;28;8853;-60
2021/01/29 06:36:47;;;;;;;;;1.00;1.00;20.50;69.80;;;19.39;55.17;100657.38;5027742;28;8817;-61
2021/01/29 06:39:35;;;;;;;;;2.00;1.25;20.70;69.90;;;19.36;55.21;100652.31;5025839;28;8915;-63
2021/01/29 06:42:41;;;;;;;;;2.50;1.50;20.60;69.40;;;19.34;55.19;100660.53;5023075;28;8798;-62
2021/01/29 06:45:58;;;;;;;;;1.25;1.25;20.50;69.10;;;19.31;55.31;100658.19;5026700;28;8828;-62
2021/01/29 06:48:33;;;;;;;;;1.75;1.75;20.50;69.20;;;19.30;55.22;100660.00;5015832;28;8832;-61
2021/01/29 06:51:36;;;;;;;;;1.50;1.50;20.50;69.10;;;19.26;55.24;100663.19;5023096;28;8855;-62
2021/01/29 06:54:34;;;;;;;;;1.00;1.00;20.40;69.30;;;19.25;55.32;100659.63;5020765;28;8834;-62
2021/01/29 06:57:16;;;;;;;;;1.50;1.00;20.50;69.30;;;19.23;55.48;100666.16;5015544;28;8819;-62
2021/01/29 07:00:37;;;;;;;;;1.75;1.00;20.50;69.10;;;19.19;55.33;100670.16;5019610;28;8849;-62
2021/01/29 07:03:28;;;;;;;;;0.50;0.00;20.50;69.10;;;19.18;55.49;100671.97;5023181;28;8819;-61
2021/01/29 07:06:27;;;;;;;;;0.00;0.00;20.30;69.00;;;19.15;55.38;100676.81;5020256;28;8801;-62
2021/01/29 07:09:19;;;;;;;;;2.50;1.50;20.40;69.30;;;19.11;55.37;100681.69;5005717;28;8858;-61
2021/01/29 07:12:30;;;;;;;;;0.75;0.75;20.50;69.70;;;19.08;55.46;100672.13;5030372;28;8925;-62
2021/01/29 07:15:24;;;;;;;;;0.25;0.25;20.40;69.10;;;19.08;55.33;100666.78;4994302;28;9008;-62
2021/01/29 07:18:10;;;;;;;;;1.50;0.75;20.40;69.20;;;19.06;55.42;100682.16;5015439;28;8856;-61
2021/01/29 07:21:01;;;;;;;;;0.00;0.00;20.40;68.90;;;19.04;55.42;100667.25;5025411;28;8921;-62
2021/01/29 07:24:16;;;;;;;;;1.25;1.00;20.40;69.00;;;19.04;55.46;100672.59;5008480;28;8894;-61
2021/01/29 07:27:23;;;;;;;;;2.00;1.00;20.20;68.90;;;19.00;55.55;100669.38;5025621;28;8783;-62
2021/01/29 07:30:26;;;;;;;;;1.00;1.00;20.30;69.10;;;19.00;55.53;100666.69;5021068;28;8796;-62
2021/01/29 07:33:30;;;;;;;;;0.00;0.00;20.30;69.30;;;18.96;55.36;100661.84;5022003;28;8800;-61
2021/01/29 07:36:24;;;;;;;;;0.00;0.00;20.20;69.30;;;18.95;55.58;100677.03;5010422;28;8841;-62
2021/01/29 07:39:44;;;;;;;;;1.00;0.75;20.60;69.30;;;18.93;55.39;100673.72;5025802;28;8907;-62
2021/01/29 07:43:12;;;;;;;;;0.00;0.00;20.30;68.90;;;18.92;55.48;100673.84;5022015;28;8829;-62
2021/01/29 07:45:52;;;;;;;;;0.00;0.00;20.30;68.80;;;18.90;55.55;100673.16;5014157;28;8792;-61
2021/01/29 07:49:08;;;;;;;;;0.75;0.75;20.30;68.80;;;18.87;55.71;100672.47;5013073;28;8807;-61
2021/01/29 07:52:03;;;;;;;;;1.00;1.00;20.10;69.00;;;18.85;55.58;100671.81;5025101;28;8832;-61
2021/01/29 07:54:47;;;;;;;;;3.50;2.25;20.20;68.70;;;18.83;55.63;100667.63;5019055;28;8882;-61
2021/01/29 07:58:00;;;;;;;;;0.75;0.50;20.30;69.20;;;18.81;55.45;100665.09;5014633;28;8768;-61
2021/01/29 08:01:00;;;;;;;;;0.00;0.00;20.10;69.00;;;18.79;55.50;100677.78;5028206;28;8831;-61
2021/01/29 08:03:59;;;;;;;;;0.00;0.00;20.20;69.10;;;18.77;55.62;100681.63;5027562;28;8837;-61
2021/01/29 08:06:50;;;;;;;;;1.00;1.00;20.30;69.10;;;18.77;55.54;100673.59;5001969;28;8851;-61
2021/01/29 08:09:37;;;;;;;;;1.00;1.00;20.40;69.30;;;18.75;55.57;100688.94;4998366;28;8782;-62
2021/01/29 08:12:12;;;;;;;;;0.00;0.00;20.10;69.20;;;18.72;55.47;100676.69;5005203;28;8837;-62
2021/01/29 08:15:16;;;;;;;;;1.00;1.00;20.10;69.30;;;18.73;55.61;100683.75;5000030;28;8888;-62
2021/01/29 08:18:32;;;;;;;;;1.00;0.00;20.20;69.40;;;18.70;55.72;100692.09;5014122;28;8887;-60
2021/01/29 08:21:19;;;;;;;;;0.00;0.00;20.10;69.40;;;18.70;55.63;100693.91;5021512;28;8848;-61
2021/01/29 08:24:18;;;;;;;;;0.00;0.00;20.00;69.30;;;18.69;55.71;100692.25;5022307;28;8782;-62
2021/01/29 08:27:23;;;;;;;;;0.00;0.00;20.10;69.50;;;18.65;55.74;100687.22;5022322;28;8800;-61
2021/01/29 08:30:34;;;;;;;;;0.00;0.00;19.80;69.50;;;18.65;55.69;100691.72;5013515;28;8813;-61
2021/01/29 08:33:17;;;;;;;;;0.50;0.50;20.00;70.30;;;18.61;55.86;100683.16;5004155;28;8868;-62
2021/01/29 08:36:36;;;;;;;;;0.00;0.00;20.00;69.50;;;18.61;55.91;100690.34;5025451;28;8828;-61
2021/01/29 08:39:52;;;;;;;;;0.75;0.75;20.00;69.40;;;18.60;55.73;100680.66;4952534;28;8797;-62
2021/01/29 08:42:44;;;;;;;;;0.00;0.00;20.00;69.20;;;18.60;55.64;100684.16;4991970;28;8835;-61
2021/01/29 08:45:49;;;;;;;;;0.00;0.00;20.00;69.50;;;18.57;55.79;100688.97;5020004;28;8815;-61
2021/01/29 08:48:38;;;;;;;;;0.00;0.00;20.00;69.40;;;18.56;55.99;100692.66;5026642;28;8822;-61
2021/01/29 08:51:40;;;;;;;;;0.00;0.00;20.00;69.50;;;18.55;55.85;100709.72;5023271;28;8831;-61
2021/01/29 08:54:45;;;;;;;;;2.00;1.00;20.00;69.50;;;18.53;55.90;100707.19;5014773;28;8818;-61
2021/01/29 08:57:27;;;;;;;;;0.50;0.00;20.00;69.40;;;18.51;56.13;100706.47;5004347;28;8933;-61
2021/01/29 08:59:59;;;;;;;;;0.00;0.00;20.00;69.40;;;18.50;56.03;100702.13;5016146;28;8821;-61
2021/01/29 09:02:51;;;;;;;;;0.00;0.00;20.00;69.30;;;18.49;56.08;100708.47;5024222;28;8894;-61
2021/01/29 09:05:28;;;;;;;;;0.00;0.00;20.10;69.50;;;18.48;56.20;100708.63;5023232;28;8823;-60
2021/01/29 09:08:06;;;;;;;;;0.00;0.00;20.00;69.40;;;18.47;55.87;100712.28;5013000;28;8761;-60
2021/01/29 09:11:01;;;;;;;;;0.00;0.00;20.00;69.10;;;18.46;56.23;100721.31;5016050;28;8868;-61
2021/01/29 09:13:30;;;;;;;;;1.00;0.50;20.00;69.10;;;18.44;55.97;100722.34;5018642;28;8821;-61
2021/01/29 09:16:17;;;;;;;;;0.75;0.75;19.90;69.20;;;18.46;56.01;100718.66;5016564;28;8825;-61
2021/01/29 09:19:14;;;;;;;;;1.00;0.00;20.00;69.10;;;18.43;56.07;100725.16;5009417;28;8831;-61
2021/01/29 09:22:01;;;;;;;;;0.00;0.00;19.90;68.90;;;18.41;55.88;100733.31;5024325;28;9527;-61
2021/01/29 09:24:40;;;;;;;;;0.00;0.00;19.90;69.40;;;18.41;56.16;100725.28;5019430;28;8793;-61
2021/01/29 09:27:06;;;;;;;;;0.50;0.50;19.90;69.40;;;18.40;56.14;100723.63;5026105;28;8838;-61
2021/01/29 09:30:05;;;;;;;;;0.00;0.00;19.70;69.40;;;18.40;56.04;100730.81;5025743;28;8914;-61
2021/01/29 09:33:25;;;;;;;;;0.00;0.00;19.80;69.50;;;18.38;56.27;100722.09;5010809;28;9541;-61
2021/01/29 09:35:56;;;;;;;;;0.00;0.00;19.80;69.60;;;18.37;56.03;100726.59;5023639;28;8795;-61
2021/01/29 09:38:34;;;;;;;;;0.00;0.00;19.90;69.80;;;18.36;56.19;100735.59;5010807;28;8864;-60
2021/01/29 09:41:22;;;;;;;;;0.00;0.00;20.00;69.90;;;18.35;56.02;100739.28;5025021;28;9592;-60
2021/01/29 09:44:18;;;;;;;;;0.25;0.00;19.90;69.90;;;18.33;56.12;100738.59;5007109;28;8782;-60
2021/01/29 09:46:46;;;;;;;;;0.00;0.00;19.60;69.80;;;18.32;56.34;100736.94;5013161;28;8858;-60
2021/01/29 09:49:36;;;;;;;;;0.00;0.00;19.80;69.90;;;18.31;56.16;100743.25;5028470;28;9449;-61
2021/01/29 09:52:24;;;;;;;;;0.00;0.00;19.80;69.80;;;18.31;56.09;100735.22;5021427;28;8815;-61
2021/01/29 09:55:09;;;;;;;;;0.50;0.00;19.90;69.90;;;18.30;56.05;100749.59;5014501;28;8794;-61
2021/01/29 09:58:15;;;;;;;;;0.00;0.00;19.70;69.70;;;18.29;55.93;100742.56;5031152;28;8790;-61
2021/01/29 10:00:54;;;;;;;;;0.00;0.00;19.70;69.80;;;18.28;55.99;100748.06;4974438;28;8820;-61
2021/01/29 10:03:54;;;;;;;;;0.00;0.00;19.70;69.80;;;18.27;56.32;100741.88;5012902;28;8793;-60
2021/01/29 10:06:31;;;;;;;;;0.00;0.00;19.60;69.80;;;18.27;55.97;100747.25;5006364;28;8934;-61
2021/01/29 10:09:09;;;;;;;;;0.50;0.00;19.50;69.70;;;18.26;56.42;100740.19;5003316;28;8892;-62
2021/01/29 10:11:58;;;;;;;;;0.00;0.00;19.60;70.10;;;18.27;56.58;100735.69;5023976;28;8819;-60
2021/01/29 10:14:57;;;;;;;;;0.00;0.00;19.60;70.50;;;18.25;56.69;100741.19;5018735;28;8777;-60
2021/01/29 10:17:30;;;;;;;;;0.00;0.00;19.80;70.20;;;18.24;56.45;100742.16;5024238;28;8812;-62
2021/01/29 10:20:11;;;;;;;;;0.00;0.00;19.70;69.90;;;18.22;56.47;100744.19;5017129;28;8913;-62
2021/01/29 10:23:30;;;;;;;;;0.25;0.00;19.70;69.80;;;18.22;56.43;100761.06;5014720;28;8795;-62
2021/01/29 10:26:15;;;;;;;;;0.00;0.00;19.60;69.50;;;18.19;56.51;100756.03;5021099;28;8855;-62
2021/01/29 10:29:32;;;;;;;;;0.00;0.00;19.70;69.80;;;18.19;56.40;100761.38;5035567;28;8824;-61
2021/01/29 10:32:25;;;;;;;;;0.00;0.00;19.60;69.80;;;18.19;56.47;100768.53;4975473;28;8820;-62
2021/01/29 10:35:36;;;;;;;;;0.00;0.00;19.60;70.00;;;18.18;56.31;100777.53;4974280;28;8819;-61
2021/01/29 10:38:29;;;;;;;;;0.00;0.00;19.60;70.10;;;18.18;56.56;100781.06;4981187;28;8834;-62
2021/01/29 10:41:06;;;;;;;;;0.00;0.00;19.50;70.50;;;18.17;56.39;100783.91;5017375;28;8859;-62
2021/01/29 10:44:06;;;;;;;;;1.00;0.00;19.60;70.10;;;18.18;56.71;100790.91;5021142;28;8804;-62
2021/01/29 10:46:58;;;;;;;;;0.00;0.00;19.60;70.10;;;18.17;56.57;100798.09;5034509;28;8798;-62
2021/01/29 10:49:43;;;;;;;;;0.00;0.00;19.70;70.10;;;18.15;56.67;100793.91;5015508;28;8807;-62
2021/01/29 10:53:04;;;;;;;;;0.00;0.00;19.60;70.20;;;18.13;56.81;100791.34;5020834;28;8842;-62
2021/01/29 10:55:50;;;;;;;;;0.00;0.00;19.50;70.10;;;18.11;56.59;100795.19;5007949;28;8836;-62
2021/01/29 10:58:53;;;;;;;;;0.00;0.00;19.50;70.10;;;18.11;56.56;100798.69;5017001;28;8786;-62
2021/01/29 11:01:40;;;;;;;;;0.00;0.00;19.50;70.10;;;18.10;56.52;100793.50;5018119;28;8787;-62
2021/01/29 11:04:37;;;;;;;;;0.00;0.00;19.40;70.90;;;18.09;56.72;100786.47;5030493;28;8780;-62
2021/01/29 11:07:23;;;;;;;;;0.50;0.00;19.60;70.40;;;18.07;56.94;100791.97;5018664;28;8812;-61
2021/01/29 11:10:13;;;;;;;;;0.00;0.00;19.30;70.10;;;18.06;56.77;100786.75;5005333;28;8798;-61
2021/01/29 11:13:12;;;;;;;;;0.00;0.00;19.40;70.20;;;18.06;56.74;100794.78;5011700;28;8814;-61
2021/01/29 11:15:55;;;;;;;;;0.00;0.00;19.40;70.20;;;18.04;56.73;100791.41;5021477;28;8796;-62
2021/01/29 11:18:37;;;;;;;;;0.00;0.00;19.40;70.30;;;18.03;56.86;100801.28;5028063;28;8884;-61
2021/01/29 11:21:31;;;;;;;;;0.00;0.00;19.40;70.30;;;18.03;56.79;100792.41;5010947;28;8830;-62
2021/01/29 11:24:30;;;;;;;;;0.00;0.00;19.40;70.30;;;18.02;56.78;100796.09;5029148;28;8945;-61
2021/01/29 11:27:43;;;;;;;;;0.00;0.00;19.60;70.40;;;18.00;56.82;100788.22;5027718;28;9516;-61
2021/01/29 11:30:37;;;;;;;;;0.00;0.00;19.40;70.30;;;17.99;56.87;100795.41;4999317;28;8812;-61
2021/01/29 11:33:08;;;;;;;;;0.00;0.00;19.40;70.30;;;17.97;56.93;100789.34;5024902;28;8816;-61
2021/01/29 11:35:56;;;;;;;;;0.00;0.00;19.40;70.30;;;17.98;56.85;100790.19;5014874;28;8780;-62
2021/01/29 11:38:47;;;;;;;;;0.00;0.00;19.30;70.30;;;17.98;56.83;100790.19;5018289;28;8804;-61
2021/01/29 11:41:43;;;;;;;;;0.00;0.00;19.40;70.40;;;17.96;56.84;100786.81;5029719;28;8782;-61
2021/01/29 11:44:48;;;;;;;;;0.00;0.00;19.30;71.10;;;17.94;57.24;100786.97;5023944;28;8799;-62
2021/01/29 11:47:24;;;;;;;;;0.00;0.00;19.10;70.30;;;17.93;57.24;100787.94;4996195;28;9007;-61
2021/01/29 11:50:02;;;;;;;;;0.50;0.00;19.30;70.50;;;17.94;56.88;100783.47;5029131;28;8821;-62
2021/01/29 11:52:55;;;;;;;;;0.75;0.00;19.40;70.50;;;17.93;56.76;100790.63;5001433;28;8812;-60